createdAt,value
2022-08-03T00:00:26.121Z,19.50
2022-08-03T00:02:52.934Z,19.50
2022-08-03T00:05:20.085Z,19.40
2022-08-03T00:07:46.884Z,19.40
2022-08-03T00:10:16.540Z,19.40
2022-08-03T00:12:43.228Z,19.30
2022-08-03T00:15:15.157Z,19.30
2022-08-03T00:17:52.519Z,19.30
2022-08-03T00:20:21.975Z,19.20
2022-08-03T00:22:49.404Z,19.20
2022-08-03T00:25:16.389Z,19.20
2022-08-03T00:27:43.020Z,19.10
2022-08-03T00:30:10.677Z,19.10
2022-08-03T00:32:41.382Z,19.10
2022-08-03T00:35:18.080Z,19.00
2022-08-03T00:37:59.297Z,19.00
2022-08-03T00:40:26.415Z,19.00
2022-08-03T00:42:58.611Z,18.90
2022-08-03T00:45:31.360Z,18.90
2022-08-03T00:47:58.971Z,18.90
2022-08-03T00:50:27.889Z,18.90
2022-08-03T00:52:56.803Z,18.90
2022-08-03T00:55:24.556Z,18.80
2022-08-03T00:57:52.109Z,18.80
2022-08-03T01:00:21.296Z,18.70
2022-08-03T01:02:50.096Z,18.80
2022-08-03T01:05:17.418Z,18.70
2022-08-03T01:08:08.048Z,18.70
2022-08-03T01:10:54.941Z,18.60
2022-08-03T01:14:01.243Z,18.60
2022-08-03T01:16:35.827Z,18.60
2022-08-03T01:19:18.760Z,18.50
2022-08-03T01:22:13.392Z,18.50
2022-08-03T01:24:55.098Z,18.50
2022-08-03T01:27:29.527Z,18.50
2022-08-03T01:30:08.597Z,18.40
2022-08-03T01:32:54.593Z,18.40
2022-08-03T01:35:42.137Z,18.40
2022-08-03T01:38:26.050Z,18.40
2022-08-03T01:40:55.039Z,18.30
2022-08-03T01:43:55.176Z,18.30
2022-08-03T01:46:16.913Z,18.30
2022-08-03T01:48:46.176Z,18.30
2022-08-03T01:51:17.251Z,18.30
2022-08-03T01:53:44.917Z,18.30
2022-08-03T01:56:13.236Z,18.30
2022-08-03T01:58:42.322Z,18.20
2022-08-03T02:01:10.000Z,18.20
2022-08-03T02:03:59.831Z,18.20
2022-08-03T02:07:02.305Z,18.20
2022-08-03T02:09:21.162Z,18.10
2022-08-03T02:11:48.394Z,18.10
2022-08-03T02:14:16.693Z,18.10
2022-08-03T02:16:45.537Z,18.10
2022-08-03T02:19:13.264Z,18.00
2022-08-03T02:21:55.701Z,18.00
2022-08-03T02:24:27.366Z,18.00
2022-08-03T02:26:56.120Z,18.00
2022-08-03T02:29:39.195Z,18.00
2022-08-03T02:32:11.629Z,17.90
2022-08-03T02:34:40.503Z,17.90
2022-08-03T02:37:10.237Z,17.90
2022-08-03T02:39:39.005Z,17.90
2022-08-03T02:42:08.559Z,17.80
2022-08-03T02:44:37.347Z,17.80
2022-08-03T02:47:09.507Z,17.80
2022-08-03T02:49:50.584Z,17.80
2022-08-03T02:52:21.781Z,17.70
2022-08-03T02:54:52.350Z,17.70
2022-08-03T02:57:20.661Z,17.70
2022-08-03T02:59:47.517Z,17.70
2022-08-03T03:02:16.596Z,17.70
2022-08-03T03:04:54.966Z,17.70
2022-08-03T03:07:45.428Z,17.70
2022-08-03T03:10:23.760Z,17.70
2022-08-03T03:12:52.868Z,17.70
2022-08-03T03:15:19.950Z,17.60
2022-08-03T03:17:49.615Z,17.70
2022-08-03T03:20:29.516Z,17.60
2022-08-03T03:22:59.546Z,17.60
2022-08-03T03:25:27.209Z,17.60
2022-08-03T03:27:53.972Z,17.70
2022-08-03T03:30:20.906Z,17.60
2022-08-03T03:32:47.642Z,17.60
2022-08-03T03:35:14.782Z,17.50
2022-08-03T03:37:42.131Z,17.50
2022-08-03T03:40:09.477Z,17.50
2022-08-03T03:42:38.223Z,17.40
2022-08-03T03:45:06.650Z,17.40
2022-08-03T03:47:35.250Z,17.40
2022-08-03T03:50:05.913Z,17.40
2022-08-03T03:52:34.148Z,17.40
2022-08-03T03:55:01.657Z,17.40
2022-08-03T03:57:29.434Z,17.40
2022-08-03T03:59:56.309Z,17.30
2022-08-03T04:02:23.336Z,17.30
2022-08-03T04:05:08.748Z,17.30
2022-08-03T04:08:15.295Z,17.30
2022-08-03T04:10:59.154Z,17.30
2022-08-03T04:13:37.403Z,17.30
2022-08-03T04:16:05.023Z,17.30
2022-08-03T04:18:34.973Z,17.30
2022-08-03T04:21:04.132Z,17.30
2022-08-03T04:23:34.408Z,17.20
2022-08-03T04:26:05.519Z,17.30
2022-08-03T04:28:34.299Z,17.30
2022-08-03T04:31:02.586Z,17.30
2022-08-03T04:33:31.486Z,17.30
2022-08-03T04:36:03.471Z,17.40
2022-08-03T04:38:36.521Z,17.40
2022-08-03T04:41:03.579Z,17.40
2022-08-03T04:43:33.487Z,17.40
2022-08-03T04:46:01.634Z,17.50
2022-08-03T04:48:29.024Z,17.70
2022-08-03T04:50:55.847Z,17.90
2022-08-03T04:53:22.591Z,18.20
2022-08-03T04:55:49.999Z,18.60
2022-08-03T04:58:16.670Z,19.00
2022-08-03T05:00:45.617Z,19.40
2022-08-03T05:03:20.434Z,19.70
2022-08-03T05:06:09.361Z,20.10
2022-08-03T05:08:46.874Z,20.50
2022-08-03T05:11:16.643Z,20.80
2022-08-03T05:13:47.252Z,21.00
2022-08-03T05:16:14.781Z,21.20
2022-08-03T05:18:42.559Z,21.10
2022-08-03T05:21:10.091Z,21.10
2022-08-03T05:23:37.780Z,21.20
2022-08-03T05:26:04.486Z,21.20
2022-08-03T05:28:31.687Z,21.20
2022-08-03T05:30:58.387Z,21.30
2022-08-03T05:33:25.096Z,21.30
2022-08-03T05:35:57.444Z,21.40
2022-08-03T05:38:34.941Z,21.50
2022-08-03T05:41:21.658Z,21.60
2022-08-03T05:43:54.769Z,21.60
2022-08-03T05:46:23.321Z,21.70
2022-08-03T05:48:50.484Z,21.90
2022-08-03T05:51:17.217Z,22.00
2022-08-03T05:53:44.539Z,22.20
2022-08-03T05:56:14.261Z,22.30
2022-08-03T05:58:48.724Z,22.40
2022-08-03T06:01:16.960Z,22.60
2022-08-03T06:03:44.436Z,22.70
2022-08-03T06:06:11.730Z,22.80
2022-08-03T06:08:38.700Z,22.80
2022-08-03T06:11:05.514Z,22.90
2022-08-03T06:13:32.313Z,23.00
2022-08-03T06:15:59.047Z,23.10
2022-08-03T06:18:26.462Z,23.30
2022-08-03T06:20:53.535Z,23.50
2022-08-03T06:23:21.927Z,23.70
2022-08-03T06:25:48.716Z,23.90
2022-08-03T06:31:03.464Z,24.20
2022-08-03T06:34:30.002Z,24.30
2022-08-03T06:36:20.413Z,24.40
2022-08-03T06:38:47.751Z,24.50
2022-08-03T06:41:14.555Z,24.70
2022-08-03T06:44:03.229Z,24.90
2022-08-03T06:46:29.086Z,25.10
2022-08-03T06:48:56.572Z,25.10
2022-08-03T06:51:23.645Z,25.30
2022-08-03T06:54:10.830Z,25.30
2022-08-03T06:56:37.559Z,25.40
2022-08-03T06:59:04.252Z,25.50
2022-08-03T07:01:31.100Z,25.70
2022-08-03T07:03:59.286Z,26.00
2022-08-03T07:06:25.928Z,26.20
2022-08-03T07:08:56.507Z,26.50
2022-08-03T07:11:26.232Z,26.70
2022-08-03T07:13:53.771Z,27.10
2022-08-03T07:16:20.444Z,27.20
2022-08-03T07:18:47.133Z,27.30
2022-08-03T07:21:13.893Z,27.40
2022-08-03T07:23:40.580Z,27.60
2022-08-03T07:26:07.278Z,27.80
2022-08-03T07:28:34.423Z,28.10
2022-08-03T07:31:01.114Z,28.00
2022-08-03T07:33:27.814Z,28.20
2022-08-03T07:35:54.769Z,28.30
2022-08-03T07:38:21.646Z,28.40
2022-08-03T07:40:48.536Z,28.60
2022-08-03T07:43:15.340Z,28.60
2022-08-03T07:45:42.225Z,28.70
2022-08-03T07:48:12.412Z,28.60
2022-08-03T07:50:39.489Z,28.90
2022-08-03T07:53:06.226Z,28.80
2022-08-03T07:55:33.277Z,28.90
2022-08-03T07:58:23.622Z,29.00
2022-08-03T08:00:52.895Z,29.20
2022-08-03T08:03:19.787Z,29.60
2022-08-03T08:05:46.689Z,29.70
2022-08-03T08:08:13.614Z,29.70
2022-08-03T08:10:40.367Z,29.80
2022-08-03T08:13:07.131Z,29.90
2022-08-03T08:15:33.823Z,30.00
2022-08-03T08:18:02.516Z,30.00
2022-08-03T08:20:34.923Z,30.10
2022-08-03T08:23:37.687Z,30.10
2022-08-03T08:25:56.237Z,30.10
2022-08-03T08:28:32.429Z,30.20
2022-08-03T08:31:00.889Z,30.30
2022-08-03T08:33:37.239Z,30.20
2022-08-03T08:36:15.549Z,30.40
2022-08-03T08:38:44.518Z,30.40
2022-08-03T08:41:12.737Z,30.60
2022-08-03T08:43:40.515Z,30.80
2022-08-03T08:46:11.737Z,31.00
2022-08-03T08:48:43.873Z,31.10
2022-08-03T08:51:12.456Z,31.00
2022-08-03T08:53:44.237Z,30.90
2022-08-03T08:56:17.269Z,31.10
2022-08-03T08:59:02.803Z,31.10
2022-08-03T09:01:30.485Z,31.20
2022-08-03T09:03:57.143Z,31.20
2022-08-03T09:06:24.412Z,31.10
2022-08-03T09:08:51.535Z,31.20
2022-08-03T09:11:51.636Z,31.40
2022-08-03T09:14:10.868Z,31.60
2022-08-03T09:17:02.350Z,31.70
2022-08-03T09:19:30.927Z,31.80
2022-08-03T09:22:17.582Z,32.00
2022-08-03T09:25:23.491Z,32.20
2022-08-03T09:27:50.319Z,32.00
2022-08-03T09:30:33.930Z,32.00
2022-08-03T09:33:08.426Z,32.20
2022-08-03T09:35:55.280Z,32.30
2022-08-03T09:38:28.006Z,32.30
2022-08-03T09:40:59.895Z,32.40
2022-08-03T09:43:28.270Z,32.60
2022-08-03T09:46:05.903Z,32.40
2022-08-03T09:48:37.530Z,32.40
2022-08-03T09:51:12.933Z,32.40
2022-08-03T09:53:58.713Z,32.50
2022-08-03T09:56:44.740Z,32.60
2022-08-03T09:59:13.457Z,32.70
2022-08-03T10:01:43.262Z,32.90
2022-08-03T10:04:15.252Z,32.90
2022-08-03T10:06:43.388Z,33.00
2022-08-03T10:09:17.340Z,33.20
2022-08-03T10:11:46.762Z,33.30
2022-08-03T10:14:20.753Z,33.10
2022-08-03T10:16:48.328Z,33.00
2022-08-03T10:19:16.255Z,32.90
2022-08-03T10:21:49.941Z,33.00
2022-08-03T10:24:30.088Z,33.10
2022-08-03T10:27:04.819Z,33.30
2022-08-03T10:29:37.366Z,33.40
2022-08-03T10:32:09.765Z,33.60
2022-08-03T10:34:44.233Z,33.40
2022-08-03T10:37:15.280Z,33.20
2022-08-03T10:39:53.962Z,33.20
2022-08-03T10:42:27.396Z,33.40
2022-08-03T10:45:06.654Z,33.60
2022-08-03T10:47:35.616Z,33.60
2022-08-03T10:50:03.528Z,33.70
2022-08-03T10:52:32.451Z,33.60
2022-08-03T10:55:19.356Z,33.50
2022-08-03T10:57:58.816Z,33.70
2022-08-03T11:00:28.782Z,33.90
2022-08-03T11:03:14.746Z,33.90
2022-08-03T11:05:47.580Z,34.00
2022-08-03T11:08:32.126Z,33.90
2022-08-03T11:11:28.312Z,33.90
2022-08-03T11:14:10.227Z,34.00
2022-08-03T11:17:06.067Z,34.20
2022-08-03T11:19:59.454Z,34.50
2022-08-03T11:22:46.113Z,34.60
2022-08-03T11:25:54.156Z,34.60
2022-08-03T11:28:28.317Z,34.40
2022-08-03T11:30:55.293Z,34.40
2022-08-03T11:33:31.931Z,34.40
2022-08-03T11:36:03.522Z,34.40
2022-08-03T11:38:30.600Z,34.60
2022-08-03T11:40:57.290Z,34.50
2022-08-03T11:43:35.138Z,34.60
2022-08-03T11:46:07.254Z,34.60
2022-08-03T11:48:33.882Z,34.90
2022-08-03T11:51:01.443Z,34.90
2022-08-03T11:53:28.718Z,34.90
2022-08-03T11:55:59.810Z,35.10
2022-08-03T11:59:16.989Z,35.10
2022-08-03T12:01:21.240Z,35.30
2022-08-03T12:03:51.120Z,35.60
2022-08-03T12:06:19.579Z,35.70
2022-08-03T12:08:46.779Z,35.80
2022-08-03T12:11:15.793Z,35.80
2022-08-03T12:14:44.705Z,35.60
2022-08-03T12:16:36.881Z,35.60
2022-08-03T12:19:06.535Z,35.50
2022-08-03T12:21:33.460Z,35.50
2022-08-03T12:24:03.516Z,35.40
2022-08-03T12:26:43.059Z,35.50
2022-08-03T12:29:22.107Z,35.50
2022-08-03T12:31:49.382Z,35.60
2022-08-03T12:34:16.736Z,35.60
2022-08-03T12:36:56.524Z,35.50
2022-08-03T12:39:28.041Z,35.40
2022-08-03T12:41:55.947Z,35.30
2022-08-03T12:44:33.682Z,35.40
2022-08-03T12:47:02.430Z,35.30
2022-08-03T12:49:30.407Z,35.00
2022-08-03T12:52:03.920Z,34.70
2022-08-03T12:54:36.198Z,35.00
2022-08-03T12:57:11.023Z,35.20
2022-08-03T12:59:53.448Z,35.40
2022-08-03T13:02:20.642Z,35.60
2022-08-03T13:04:52.038Z,35.80
2022-08-03T13:07:19.864Z,35.50
2022-08-03T13:09:54.896Z,35.50
2022-08-03T13:12:22.861Z,35.00
2022-08-03T13:14:58.663Z,35.00
2022-08-03T13:17:26.297Z,35.20
2022-08-03T13:19:53.663Z,35.20
2022-08-03T13:22:27.185Z,35.60
2022-08-03T13:24:56.540Z,35.50
2022-08-03T13:28:04.380Z,35.60
2022-08-03T13:30:17.903Z,35.70
2022-08-03T13:32:58.562Z,35.70
2022-08-03T13:35:25.758Z,35.80
2022-08-03T13:37:52.472Z,35.70
2022-08-03T13:40:19.170Z,35.70
2022-08-03T13:42:50.531Z,35.90
2022-08-03T13:45:17.810Z,35.90
2022-08-03T13:47:44.489Z,36.00
2022-08-03T13:50:11.787Z,36.10
2022-08-03T13:52:38.489Z,36.10
2022-08-03T13:55:06.926Z,36.10
2022-08-03T13:58:03.344Z,36.00
2022-08-03T14:00:27.413Z,36.00
2022-08-03T14:03:02.847Z,36.00
2022-08-03T14:05:32.629Z,36.00
2022-08-03T14:08:04.964Z,35.80
2022-08-03T14:10:33.313Z,35.80
2022-08-03T14:13:00.568Z,35.80
2022-08-03T14:15:28.558Z,35.90
2022-08-03T14:17:56.249Z,35.80
2022-08-03T14:20:38.898Z,35.80
2022-08-03T14:23:13.131Z,35.80
2022-08-03T14:25:44.558Z,35.90
2022-08-03T14:28:18.734Z,35.90
2022-08-03T14:30:46.085Z,35.80
2022-08-03T14:33:13.090Z,35.80
2022-08-03T14:35:40.131Z,35.80
2022-08-03T14:38:06.912Z,35.70
2022-08-03T14:40:33.755Z,35.70
2022-08-03T14:43:01.030Z,35.50
2022-08-03T14:45:27.773Z,35.40
2022-08-03T14:50:34.482Z,35.40
2022-08-03T14:50:46.801Z,35.40
2022-08-03T14:53:17.572Z,35.20
2022-08-03T14:55:50.447Z,35.30
2022-08-03T14:58:23.190Z,35.30
2022-08-03T15:00:51.602Z,35.30
2022-08-03T15:03:23.562Z,35.30
2022-08-03T15:05:52.815Z,35.50
2022-08-03T15:08:20.372Z,35.60
2022-08-03T15:10:48.434Z,35.50
2022-08-03T15:13:16.811Z,35.40
2022-08-03T15:15:43.791Z,35.30
2022-08-03T15:18:10.636Z,35.40
2022-08-03T15:20:46.285Z,35.40
2022-08-03T15:23:14.410Z,35.40
2022-08-03T15:26:29.454Z,35.20
2022-08-03T15:28:30.049Z,34.90
2022-08-03T15:30:57.566Z,34.70
2022-08-03T15:33:24.533Z,34.60
2022-08-03T15:35:51.895Z,34.60
2022-08-03T15:38:18.757Z,34.70
2022-08-03T15:40:45.614Z,34.70
2022-08-03T15:43:12.383Z,34.70
2022-08-03T15:45:41.842Z,34.40
2022-08-03T15:48:09.033Z,34.00
2022-08-03T15:50:36.041Z,33.80
2022-08-03T15:53:02.854Z,33.70
2022-08-03T15:55:29.700Z,33.70
2022-08-03T15:59:11.421Z,33.40
2022-08-03T16:00:43.785Z,33.30
2022-08-03T16:03:10.859Z,33.30
2022-08-03T16:05:37.730Z,33.30
2022-08-03T16:08:06.315Z,33.10
2022-08-03T16:10:35.790Z,33.10
2022-08-03T16:13:02.462Z,33.20
2022-08-03T16:15:29.242Z,33.40
2022-08-03T16:17:56.458Z,33.50
2022-08-03T16:20:30.791Z,33.60
2022-08-03T16:23:01.546Z,33.70
2022-08-03T16:25:37.241Z,33.60
2022-08-03T16:28:07.679Z,33.60
2022-08-03T16:30:40.087Z,33.50
2022-08-03T16:33:06.989Z,33.40
2022-08-03T16:35:33.889Z,33.50
2022-08-03T16:38:00.667Z,33.60
2022-08-03T16:40:27.714Z,33.40
2022-08-03T16:42:54.636Z,33.20
2022-08-03T16:45:21.985Z,33.20
2022-08-03T16:48:01.244Z,33.20
2022-08-03T16:50:31.698Z,33.10
2022-08-03T16:52:58.805Z,32.90
2022-08-03T16:55:43.368Z,32.70
2022-08-03T16:58:15.080Z,32.60
2022-08-03T17:00:42.984Z,32.60
2022-08-03T17:03:12.461Z,32.60
2022-08-03T17:05:49.806Z,32.60
2022-08-03T17:08:26.259Z,32.70
2022-08-03T17:10:54.097Z,32.80
2022-08-03T17:13:22.621Z,32.80
2022-08-03T17:15:58.006Z,32.80
2022-08-03T17:18:32.403Z,32.80
2022-08-03T17:21:03.229Z,32.80
2022-08-03T17:23:51.987Z,32.80
2022-08-03T17:26:21.949Z,33.00
2022-08-03T17:28:57.391Z,33.30
2022-08-03T17:31:31.914Z,33.70
2022-08-03T17:34:02.080Z,34.70
2022-08-03T17:37:02.544Z,36.10
2022-08-03T17:39:30.947Z,37.50
2022-08-03T17:42:29.418Z,38.60
2022-08-03T17:44:55.151Z,38.70
2022-08-03T17:47:23.317Z,38.00
2022-08-03T17:49:56.871Z,36.90
2022-08-03T17:52:35.014Z,35.80
2022-08-03T17:55:55.443Z,34.90
2022-08-03T17:58:13.932Z,34.20
2022-08-03T18:01:03.602Z,33.50
2022-08-03T18:03:57.807Z,33.10
2022-08-03T18:06:31.101Z,32.80
2022-08-03T18:09:04.675Z,32.50
2022-08-03T18:11:35.501Z,32.30
2022-08-03T18:14:19.347Z,32.20
2022-08-03T18:17:01.696Z,32.00
2022-08-03T18:20:02.767Z,31.70
2022-08-03T18:22:19.632Z,31.50
2022-08-03T18:24:48.818Z,31.50
2022-08-03T18:27:15.865Z,31.40
2022-08-03T18:29:47.032Z,31.30
2022-08-03T18:32:16.903Z,31.20
2022-08-03T18:34:53.062Z,31.20
2022-08-03T18:37:25.364Z,31.00
2022-08-03T18:40:11.733Z,30.80
2022-08-03T18:42:52.864Z,30.60
2022-08-03T18:45:55.936Z,30.30
2022-08-03T18:48:27.018Z,30.20
2022-08-03T18:51:06.942Z,29.90
2022-08-03T18:54:03.890Z,29.80
2022-08-03T18:56:38.582Z,29.60
2022-08-03T18:59:10.760Z,29.50
2022-08-03T19:01:58.974Z,29.20
2022-08-03T19:04:38.721Z,29.00
2022-08-03T19:07:09.570Z,28.90
2022-08-03T19:09:58.304Z,28.80
2022-08-03T19:12:46.234Z,28.70
2022-08-03T19:15:15.640Z,28.60
2022-08-03T19:17:52.777Z,28.40
2022-08-03T19:20:23.015Z,28.20
2022-08-03T19:22:53.180Z,28.00
2022-08-03T19:25:20.397Z,27.90
2022-08-03T19:28:04.254Z,27.80
2022-08-03T19:30:39.596Z,27.60
2022-08-03T19:33:12.084Z,27.40
2022-08-03T19:35:54.799Z,27.30
2022-08-03T19:41:15.017Z,27.00
2022-08-03T19:43:58.877Z,26.80
2022-08-03T19:46:30.257Z,26.70
2022-08-03T19:49:04.805Z,26.70
2022-08-03T19:52:01.690Z,26.60
2022-08-03T19:57:17.827Z,26.40
2022-08-03T19:59:49.955Z,26.30
2022-08-03T20:02:26.915Z,26.30
2022-08-03T20:04:55.840Z,26.20
2022-08-03T20:07:23.789Z,26.00
2022-08-03T20:09:56.161Z,25.90
2022-08-03T20:12:26.616Z,25.80
2022-08-03T20:14:56.758Z,25.70
2022-08-03T20:17:57.125Z,25.60
2022-08-03T20:20:10.456Z,25.60
2022-08-03T20:22:43.093Z,25.50
2022-08-03T20:25:16.341Z,25.40
2022-08-03T20:30:44.056Z,25.30
2022-08-03T20:33:11.716Z,25.20
2022-08-03T20:35:45.854Z,25.10
2022-08-03T20:38:16.394Z,25.00
2022-08-03T20:40:43.770Z,25.00
2022-08-03T20:43:11.240Z,24.80
2022-08-03T20:45:59.074Z,24.80
2022-08-03T20:48:28.004Z,24.80
2022-08-03T20:50:56.381Z,24.70
2022-08-03T20:54:00.100Z,24.60
2022-08-03T20:56:10.171Z,24.60
2022-08-03T20:58:37.835Z,24.40
2022-08-03T21:01:08.533Z,24.40
2022-08-03T21:03:41.059Z,24.30
2022-08-03T21:06:27.826Z,24.10
2022-08-03T21:09:03.771Z,24.00
2022-08-03T21:11:41.982Z,24.00
2022-08-03T21:13:03.181Z,26.50
2022-08-03T21:13:09.434Z,27.20
2022-08-03T21:13:14.319Z,25.40
2022-08-03T21:14:18.774Z,24.00
2022-08-03T21:16:46.380Z,24.00
2022-08-03T21:19:14.526Z,24.00
2022-08-03T21:21:44.492Z,24.00
2022-08-03T21:24:13.782Z,24.00
2022-08-03T21:26:41.935Z,24.00
2022-08-03T21:29:11.699Z,24.00
2022-08-03T21:31:39.783Z,23.90
2022-08-03T21:34:06.943Z,23.90
2022-08-03T21:36:36.098Z,23.70
2022-08-03T21:39:05.852Z,23.70
2022-08-03T21:41:33.066Z,23.60
2022-08-03T21:44:00.859Z,23.50
2022-08-03T21:46:33.143Z,23.50
2022-08-03T21:50:02.596Z,23.50
2022-08-03T21:51:52.608Z,23.40
2022-08-03T21:54:22.714Z,23.30
2022-08-03T21:56:51.598Z,23.30
2022-08-03T21:59:20.470Z,23.20
2022-08-03T22:01:49.402Z,23.20
2022-08-03T22:04:54.987Z,23.20
2022-08-03T22:07:09.534Z,23.20
2022-08-03T22:09:37.017Z,23.20
2022-08-03T22:12:04.969Z,23.20
2022-08-03T22:14:35.003Z,23.20
2022-08-03T22:17:03.488Z,23.20
2022-08-03T22:19:33.939Z,23.20
2022-08-03T22:22:04.666Z,23.10
2022-08-03T22:24:34.998Z,23.10
2022-08-03T22:27:36.222Z,23.10
2022-08-03T22:30:12.688Z,23.10
2022-08-03T22:32:40.938Z,23.10
2022-08-03T22:35:11.270Z,23.10
2022-08-03T22:37:39.021Z,23.00
2022-08-03T22:40:14.295Z,23.00
2022-08-03T22:42:42.800Z,23.00
2022-08-03T22:45:09.776Z,23.00
2022-08-03T22:47:39.649Z,23.00
2022-08-03T22:50:32.045Z,23.00
2022-08-03T22:52:59.822Z,22.90
2022-08-03T22:55:27.228Z,22.90
2022-08-03T22:57:56.213Z,22.90
2022-08-03T23:00:26.313Z,22.90
2022-08-03T23:02:55.301Z,22.90
2022-08-03T23:06:00.517Z,22.90
2022-08-03T23:08:17.357Z,23.00
2022-08-03T23:10:47.203Z,23.00
2022-08-03T23:13:17.206Z,23.00
2022-08-03T23:15:54.987Z,23.00
2022-08-03T23:18:23.708Z,23.10
2022-08-03T23:20:52.768Z,23.10
2022-08-03T23:23:20.741Z,23.10
2022-08-03T23:25:50.392Z,23.10
2022-08-03T23:28:17.812Z,23.10
2022-08-03T23:30:45.444Z,23.30
2022-08-03T23:33:16.281Z,23.20
2022-08-03T23:36:27.980Z,23.20
2022-08-03T23:38:47.587Z,23.20
2022-08-03T23:41:16.507Z,23.20
2022-08-03T23:43:52.263Z,23.20
2022-08-03T23:46:22.095Z,23.20
2022-08-03T23:48:49.492Z,23.20
2022-08-03T23:51:50.654Z,23.30
2022-08-03T23:54:20.384Z,23.20
2022-08-03T23:57:05.112Z,23.30
2022-08-03T23:59:40.781Z,23.20
